sensor_id;sensor_type;location;lat;lon;timestamp;pressure;altitude;pressure_sealevel;temperature;humidity
42511;BME280;28141;51.120;17.114;2022-07-29T00:01:57;101926.75;;;29.57;32.11
42511;BME280;28141;51.120;17.114;2022-07-29T00:05:01;101915.82;;;29.55;32.47
42511;BME280;28141;51.120;17.114;2022-07-29T00:08:05;101927.23;;;29.54;32.80
42511;BME280;28141;51.120;17.114;2022-07-29T00:11:35;101934.18;;;29.51;32.37
42511;BME280;28141;51.120;17.114;2022-07-29T00:14:38;101929.06;;;29.48;32.50
42511;BME280;28141;51.120;17.114;2022-07-29T00:17:41;101931.25;;;29.46;32.35
42511;BME280;28141;51.120;17.114;2022-07-29T00:20:45;101933.43;;;29.44;32.33
42511;BME280;28141;51.120;17.114;2022-07-29T00:23:48;101933.43;;;29.44;32.28
42511;BME280;28141;51.120;17.114;2022-07-29T00:26:51;101940.10;;;29.43;32.52
42511;BME280;28141;51.120;17.114;2022-07-29T00:29:55;101941.70;;;29.39;32.51
42511;BME280;28141;51.120;17.114;2022-07-29T00:32:58;101929.92;;;29.37;32.66
42511;BME280;28141;51.120;17.114;2022-07-29T00:36:02;101930.12;;;29.35;32.59
42511;BME280;28141;51.120;17.114;2022-07-29T00:39:05;101928.42;;;29.34;32.61
42511;BME280;28141;51.120;17.114;2022-07-29T00:42:09;101925.86;;;29.33;32.58
42511;BME280;28141;51.120;17.114;2022-07-29T00:45:41;101922.98;;;29.28;32.72
42511;BME280;28141;51.120;17.114;2022-07-29T00:48:45;101911.43;;;29.24;32.72
42511;BME280;28141;51.120;17.114;2022-07-29T00:51:49;101917.26;;;29.23;32.32
42511;BME280;28141;51.120;17.114;2022-07-29T00:54:53;101919.44;;;29.21;32.81
42511;BME280;28141;51.120;17.114;2022-07-29T00:57:57;101916.91;;;29.19;33.01
42511;BME280;28141;51.120;17.114;2022-07-29T01:01:01;101913.27;;;29.19;32.98
42511;BME280;28141;51.120;17.114;2022-07-29T01:04:06;101915.45;;;29.17;32.71
42511;BME280;28141;51.120;17.114;2022-07-29T01:07:10;101915.69;;;29.15;32.87
42511;BME280;28141;51.120;17.114;2022-07-29T01:10:14;101926.23;;;29.13;33.31
42511;BME280;28141;51.120;17.114;2022-07-29T01:13:19;101919.80;;;29.13;33.21
42511;BME280;28141;51.120;17.114;2022-07-29T01:16:56;101925.03;;;29.09;33.02
42511;BME280;28141;51.120;17.114;2022-07-29T01:30:18;101910.81;;;28.87;33.35
42511;BME280;28141;51.120;17.114;2022-07-29T01:33:23;101906.42;;;28.91;32.95
42511;BME280;28141;51.120;17.114;2022-07-29T01:36:51;101881.55;;;28.78;33.19
42511;BME280;28141;51.120;17.114;2022-07-29T01:39:58;101907.41;;;28.85;33.79
42511;BME280;28141;51.120;17.114;2022-07-29T01:43:11;101904.97;;;28.89;33.13
42511;BME280;28141;51.120;17.114;2022-07-29T01:46:49;101908.48;;;28.84;33.43
42511;BME280;28141;51.120;17.114;2022-07-29T01:49:54;101900.74;;;28.86;33.04
42511;BME280;28141;51.120;17.114;2022-07-29T01:53:04;101904.38;;;28.87;33.57
42511;BME280;28141;51.120;17.114;2022-07-29T01:56:09;101894.66;;;28.89;33.24
42511;BME280;28141;51.120;17.114;2022-07-29T01:59:13;101894.30;;;28.86;33.67
42511;BME280;28141;51.120;17.114;2022-07-29T02:02:19;101882.30;;;28.85;33.74
42511;BME280;28141;51.120;17.114;2022-07-29T02:05:26;101882.53;;;28.84;33.13
42511;BME280;28141;51.120;17.114;2022-07-29T02:08:58;101884.95;;;28.80;33.48
42511;BME280;28141;51.120;17.114;2022-07-29T02:12:04;101890.75;;;28.79;33.51
42511;BME280;28141;51.120;17.114;2022-07-29T02:15:09;101881.77;;;28.77;33.93
42511;BME280;28141;51.120;17.114;2022-07-29T02:18:18;101884.34;;;28.78;33.99
42511;BME280;28141;51.120;17.114;2022-07-29T02:21:26;101887.82;;;28.74;33.47
42511;BME280;28141;51.120;17.114;2022-07-29T02:24:30;101877.52;;;28.74;34.12
42511;BME280;28141;51.120;17.114;2022-07-29T02:27:34;101883.11;;;28.74;34.45
42511;BME280;28141;51.120;17.114;2022-07-29T02:30:40;101886.12;;;28.73;34.11
42511;BME280;28141;51.120;17.114;2022-07-29T02:34:12;101885.74;;;28.69;33.69
42511;BME280;28141;51.120;17.114;2022-07-29T02:37:16;101885.13;;;28.67;34.09
42511;BME280;28141;51.120;17.114;2022-07-29T02:40:21;101889.61;;;28.68;33.70
42511;BME280;28141;51.120;17.114;2022-07-29T02:43:25;101885.97;;;28.67;33.87
42511;BME280;28141;51.120;17.114;2022-07-29T02:46:32;101882.60;;;28.65;33.62
42511;BME280;28141;51.120;17.114;2022-07-29T02:53:07;101882.07;;;28.57;33.60
42511;BME280;28141;51.120;17.114;2022-07-29T02:56:39;101888.27;;;28.59;33.90
42511;BME280;28141;51.120;17.114;2022-07-29T02:59:45;101886.70;;;28.63;33.81
42511;BME280;28141;51.120;17.114;2022-07-29T03:02:53;101892.90;;;28.65;34.33
42511;BME280;28141;51.120;17.114;2022-07-29T03:06:00;101893.75;;;28.65;34.26
42511;BME280;28141;51.120;17.114;2022-07-29T03:09:06;101891.81;;;28.66;33.77
42511;BME280;28141;51.120;17.114;2022-07-29T03:12:11;101894.10;;;28.69;33.69
42511;BME280;28141;51.120;17.114;2022-07-29T03:15:16;101885.74;;;28.69;33.49
42511;BME280;28141;51.120;17.114;2022-07-29T03:18:19;101884.04;;;28.68;33.19
42511;BME280;28141;51.120;17.114;2022-07-29T03:21:52;101894.34;;;28.67;33.62
42511;BME280;28141;51.120;17.114;2022-07-29T03:28:12;101887.32;;;28.65;33.66
42511;BME280;28141;51.120;17.114;2022-07-29T03:31:16;101897.39;;;28.66;33.74
42511;BME280;28141;51.120;17.114;2022-07-29T03:34:19;101891.81;;;28.66;33.38
42511;BME280;28141;51.120;17.114;2022-07-29T03:37:23;101896.78;;;28.64;33.14
42511;BME280;28141;51.120;17.114;2022-07-29T03:44:07;101900.27;;;28.59;33.56
42511;BME280;28141;51.120;17.114;2022-07-29T03:47:13;101895.30;;;28.61;33.47
42511;BME280;28141;51.120;17.114;2022-07-29T03:50:19;101904.28;;;28.63;33.63
42511;BME280;28141;51.120;17.114;2022-07-29T03:53:24;101907.93;;;28.64;33.29
42511;BME280;28141;51.120;17.114;2022-07-29T03:56:28;101905.14;;;28.64;33.21
42511;BME280;28141;51.120;17.114;2022-07-29T03:59:33;101903.44;;;28.63;33.66
42511;BME280;28141;51.120;17.114;2022-07-29T04:02:38;101907.31;;;28.62;33.54
42511;BME280;28141;51.120;17.114;2022-07-29T04:05:42;101907.31;;;28.62;33.55
42511;BME280;28141;51.120;17.114;2022-07-29T04:08:46;101916.53;;;28.62;33.68
42511;BME280;28141;51.120;17.114;2022-07-29T04:12:17;101918.46;;;28.62;33.46
42511;BME280;28141;51.120;17.114;2022-07-29T04:15:21;101914.36;;;28.64;33.82
42511;BME280;28141;51.120;17.114;2022-07-29T04:18:24;101907.69;;;28.65;33.13
42511;BME280;28141;51.120;17.114;2022-07-29T04:21:28;101908.55;;;28.66;33.69
42511;BME280;28141;51.120;17.114;2022-07-29T04:24:31;101900.77;;;28.68;33.61
42511;BME280;28141;51.120;17.114;2022-07-29T04:27:34;101902.47;;;28.69;33.34
42511;BME280;28141;51.120;17.114;2022-07-29T04:30:44;101900.30;;;28.71;33.30
42511;BME280;28141;51.120;17.114;2022-07-29T04:33:47;101904.17;;;28.70;33.26
42511;BME280;28141;51.120;17.114;2022-07-29T04:36:51;101899.21;;;28.72;33.45
42511;BME280;28141;51.120;17.114;2022-07-29T04:39:54;101893.64;;;28.72;33.59
42511;BME280;28141;51.120;17.114;2022-07-29T04:43:26;101908.44;;;28.73;33.50
42511;BME280;28141;51.120;17.114;2022-07-29T04:46:29;101903.70;;;28.73;33.19
42511;BME280;28141;51.120;17.114;2022-07-29T04:49:32;101906.88;;;28.77;33.56
42511;BME280;28141;51.120;17.114;2022-07-29T04:52:36;101897.19;;;28.79;33.89
42511;BME280;28141;51.120;17.114;2022-07-29T04:55:40;101900.98;;;28.85;33.41
42511;BME280;28141;51.120;17.114;2022-07-29T04:58:43;101909.22;;;28.91;33.14
42511;BME280;28141;51.120;17.114;2022-07-29T05:01:46;101898.67;;;28.93;33.42
42511;BME280;28141;51.120;17.114;2022-07-29T05:04:50;101907.66;;;28.95;33.49
42511;BME280;28141;51.120;17.114;2022-07-29T05:07:53;101900.14;;;28.96;33.09
42511;BME280;28141;51.120;17.114;2022-07-29T05:10:58;101895.52;;;29.01;33.69
42511;BME280;28141;51.120;17.114;2022-07-29T05:14:01;101900.27;;;29.13;33.58
42511;BME280;28141;51.120;17.114;2022-07-29T05:17:05;101893.97;;;29.17;33.36
42511;BME280;28141;51.120;17.114;2022-07-29T05:20:34;101902.11;;;29.19;33.36
42511;BME280;28141;51.120;17.114;2022-07-29T05:23:38;101903.54;;;29.21;33.55
42511;BME280;28141;51.120;17.114;2022-07-29T05:26:42;101897.72;;;29.23;32.82
42511;BME280;28141;51.120;17.114;2022-07-29T05:29:45;101909.63;;;29.30;33.07
42511;BME280;28141;51.120;17.114;2022-07-29T05:32:49;101901.84;;;29.32;33.24
42511;BME280;28141;51.120;17.114;2022-07-29T05:35:52;101899.21;;;29.37;32.96
42511;BME280;28141;51.120;17.114;2022-07-29T05:38:56;101899.82;;;29.39;33.14
42511;BME280;28141;51.120;17.114;2022-07-29T05:42:00;101906.02;;;29.41;33.10
42511;BME280;28141;51.120;17.114;2022-07-29T05:45:04;101905.27;;;29.46;32.48
42511;BME280;28141;51.120;17.114;2022-07-29T05:48:08;101901.76;;;29.50;33.16
42511;BME280;28141;51.120;17.114;2022-07-29T05:51:11;101900.67;;;29.51;33.26
42511;BME280;28141;51.120;17.114;2022-07-29T05:54:43;101898.97;;;29.50;33.07
42511;BME280;28141;51.120;17.114;2022-07-29T05:57:47;101891.54;;;29.56;33.09
42511;BME280;28141;51.120;17.114;2022-07-29T06:00:50;101892.39;;;29.56;33.03
42511;BME280;28141;51.120;17.114;2022-07-29T06:03:53;101900.90;;;29.61;33.40
42511;BME280;28141;51.120;17.114;2022-07-29T06:06:57;101902.60;;;29.62;33.04
42511;BME280;28141;51.120;17.114;2022-07-29T06:10:00;101897.59;;;29.64;33.12
42511;BME280;28141;51.120;17.114;2022-07-29T06:13:04;101897.87;;;29.63;33.36
42511;BME280;28141;51.120;17.114;2022-07-29T06:16:07;101893.70;;;29.65;32.83
42511;BME280;28141;51.120;17.114;2022-07-29T06:19:11;101895.77;;;29.70;33.56
42511;BME280;28141;51.120;17.114;2022-07-29T06:22:17;101889.44;;;29.74;33.12
42511;BME280;28141;51.120;17.114;2022-07-29T06:25:21;101884.12;;;29.73;32.83
42511;BME280;28141;51.120;17.114;2022-07-29T06:28:51;101885.54;;;29.75;33.34
42511;BME280;28141;51.120;17.114;2022-07-29T06:31:54;101885.06;;;29.78;33.02
42511;BME280;28141;51.120;17.114;2022-07-29T06:34:58;101887.98;;;29.84;33.41
42511;BME280;28141;51.120;17.114;2022-07-29T06:38:04;101885.27;;;29.89;32.83
42511;BME280;28141;51.120;17.114;2022-07-29T06:41:08;101893.29;;;29.97;32.76
42511;BME280;28141;51.120;17.114;2022-07-29T06:44:18;101890.26;;;29.98;32.70
42511;BME280;28141;51.120;17.114;2022-07-29T06:47:22;101904.11;;;30.05;32.77
42511;BME280;28141;51.120;17.114;2022-07-29T06:50:25;101896.05;;;30.08;32.47
42511;BME280;28141;51.120;17.114;2022-07-29T06:53:32;101901.52;;;30.15;32.23
42511;BME280;28141;51.120;17.114;2022-07-29T06:57:05;101899.41;;;30.22;32.78
42511;BME280;28141;51.120;17.114;2022-07-29T07:00:10;101898.15;;;30.30;32.95
42511;BME280;28141;51.120;17.114;2022-07-29T07:03:14;101898.02;;;30.36;31.40
42511;BME280;28141;51.120;17.114;2022-07-29T07:06:18;101901.41;;;30.38;32.05
42511;BME280;28141;51.120;17.114;2022-07-29T07:09:22;101901.49;;;30.43;31.92
42511;BME280;28141;51.120;17.114;2022-07-29T07:12:25;101898.82;;;30.48;33.04
42511;BME280;28141;51.120;17.114;2022-07-29T07:15:29;101895.39;;;30.58;32.86
42511;BME280;28141;51.120;17.114;2022-07-29T07:18:32;101892.91;;;30.62;31.67
42511;BME280;28141;51.120;17.114;2022-07-29T07:21:36;101889.61;;;30.65;32.64
42511;BME280;28141;51.120;17.114;2022-07-29T07:24:39;101891.67;;;30.69;33.10
42511;BME280;28141;51.120;17.114;2022-07-29T07:27:43;101882.50;;;30.74;32.12
42511;BME280;28141;51.120;17.114;2022-07-29T07:30:47;101882.96;;;30.82;32.44
42511;BME280;28141;51.120;17.114;2022-07-29T07:34:17;101876.58;;;30.87;31.99
42511;BME280;28141;51.120;17.114;2022-07-29T07:37:20;101883.38;;;30.91;31.90
42511;BME280;28141;51.120;17.114;2022-07-29T07:40:25;101886.24;;;30.96;31.72
42511;BME280;28141;51.120;17.114;2022-07-29T07:43:28;101880.99;;;31.00;31.72
42511;BME280;28141;51.120;17.114;2022-07-29T07:46:31;101879.97;;;31.06;32.26
42511;BME280;28141;51.120;17.114;2022-07-29T07:49:35;101874.23;;;31.12;31.66
42511;BME280;28141;51.120;17.114;2022-07-29T07:52:48;101874.84;;;31.14;31.41
42511;BME280;28141;51.120;17.114;2022-07-29T07:55:52;101883.13;;;31.09;31.93
42511;BME280;28141;51.120;17.114;2022-07-29T07:58:56;101874.55;;;31.16;31.38
42511;BME280;28141;51.120;17.114;2022-07-29T08:01:59;101879.39;;;31.20;31.76
42511;BME280;28141;51.120;17.114;2022-07-29T08:05:30;101875.50;;;31.22;31.75
42511;BME280;28141;51.120;17.114;2022-07-29T08:08:33;101868.29;;;31.26;32.07
42511;BME280;28141;51.120;17.114;2022-07-29T08:11:37;101873.35;;;31.29;31.89
42511;BME280;28141;51.120;17.114;2022-07-29T08:14:40;101875.90;;;31.30;31.93
42511;BME280;28141;51.120;17.114;2022-07-29T08:17:44;101867.24;;;31.32;32.07
42511;BME280;28141;51.120;17.114;2022-07-29T08:20:48;101870.30;;;31.30;31.93
42511;BME280;28141;51.120;17.114;2022-07-29T08:23:52;101870.88;;;31.32;32.21
42511;BME280;28141;51.120;17.114;2022-07-29T08:26:56;101873.51;;;31.39;31.81
42511;BME280;28141;51.120;17.114;2022-07-29T08:29:59;101867.90;;;31.39;31.77
42511;BME280;28141;51.120;17.114;2022-07-29T08:33:03;101864.25;;;31.38;32.10
42511;BME280;28141;51.120;17.114;2022-07-29T08:36:07;101870.78;;;31.44;32.18
42511;BME280;28141;51.120;17.114;2022-07-29T08:39:10;101871.63;;;31.44;32.17
42511;BME280;28141;51.120;17.114;2022-07-29T08:42:40;101876.64;;;31.42;31.94
42511;BME280;28141;51.120;17.114;2022-07-29T08:45:45;101871.89;;;31.43;31.87
42511;BME280;28141;51.120;17.114;2022-07-29T08:48:49;101867.73;;;31.45;32.06
42511;BME280;28141;51.120;17.114;2022-07-29T08:51:53;101869.43;;;31.46;31.37
42511;BME280;28141;51.120;17.114;2022-07-29T08:54:59;101859.13;;;31.52;32.01
42511;BME280;28141;51.120;17.114;2022-07-29T08:58:04;101865.59;;;31.52;31.73
42511;BME280;28141;51.120;17.114;2022-07-29T09:01:09;101864.87;;;31.62;31.90
42511;BME280;28141;51.120;17.114;2022-07-29T09:04:15;101861.07;;;31.68;31.98
42511;BME280;28141;51.120;17.114;2022-07-29T09:07:19;101858.91;;;31.75;32.43
42511;BME280;28141;51.120;17.114;2022-07-29T09:10:22;101849.45;;;31.81;32.18
42511;BME280;28141;51.120;17.114;2022-07-29T09:13:55;101860.99;;;31.85;31.83
42511;BME280;28141;51.120;17.114;2022-07-29T09:16:58;101864.65;;;31.85;31.90
42511;BME280;28141;51.120;17.114;2022-07-29T09:20:10;101852.66;;;31.90;31.54
42511;BME280;28141;51.120;17.114;2022-07-29T09:23:14;101852.97;;;31.93;31.41
42511;BME280;28141;51.120;17.114;2022-07-29T09:26:17;101849.64;;;31.97;31.40
42511;BME280;28141;51.120;17.114;2022-07-29T09:29:23;101837.11;;;32.04;31.60
42511;BME280;28141;51.120;17.114;2022-07-29T09:32:28;101837.45;;;32.08;31.55
42511;BME280;28141;51.120;17.114;2022-07-29T09:35:32;101840.27;;;32.13;31.24
42511;BME280;28141;51.120;17.114;2022-07-29T09:38:36;101842.83;;;32.14;31.23
42511;BME280;28141;51.120;17.114;2022-07-29T09:42:06;101840.61;;;32.16;31.55
42511;BME280;28141;51.120;17.114;2022-07-29T09:45:10;101838.76;;;32.22;31.70
42511;BME280;28141;51.120;17.114;2022-07-29T09:48:21;101837.35;;;32.24;31.90
42511;BME280;28141;51.120;17.114;2022-07-29T09:51:25;101837.16;;;32.31;31.55
42511;BME280;28141;51.120;17.114;2022-07-29T09:54:28;101826.80;;;32.32;31.66
42511;BME280;28141;51.120;17.114;2022-07-29T09:57:39;101820.33;;;32.31;31.26
42511;BME280;28141;51.120;17.114;2022-07-29T10:00:44;101825.94;;;32.31;31.90
42511;BME280;28141;51.120;17.114;2022-07-29T10:04:13;101817.56;;;32.36;31.52
42511;BME280;28141;51.120;17.114;2022-07-29T10:07:16;101826.56;;;32.38;31.85
42511;BME280;28141;51.120;17.114;2022-07-29T10:10:28;101815.67;;;32.42;30.88
42511;BME280;28141;51.120;17.114;2022-07-29T10:13:32;101821.02;;;32.43;31.66
42511;BME280;28141;51.120;17.114;2022-07-29T10:16:38;101812.02;;;32.41;31.20
42511;BME280;28141;51.120;17.114;2022-07-29T10:19:42;101812.63;;;32.48;32.04
42511;BME280;28141;51.120;17.114;2022-07-29T10:22:47;101810.48;;;32.55;31.65
42511;BME280;28141;51.120;17.114;2022-07-29T10:25:51;101810.49;;;32.60;31.83
42511;BME280;28141;51.120;17.114;2022-07-29T10:29:19;101811.12;;;32.68;31.40
42511;BME280;28141;51.120;17.114;2022-07-29T10:35:48;101799.39;;;32.71;31.55
42511;BME280;28141;51.120;17.114;2022-07-29T10:42:15;101809.50;;;32.72;30.75
42511;BME280;28141;51.120;17.114;2022-07-29T10:45:48;101810.84;;;32.69;31.35
42511;BME280;28141;51.120;17.114;2022-07-29T10:52:09;101800.18;;;32.66;31.03
42511;BME280;28141;51.120;17.114;2022-07-29T10:58:29;101802.69;;;32.68;31.89
42511;BME280;28141;51.120;17.114;2022-07-29T11:01:32;101809.82;;;32.75;31.46
42511;BME280;28141;51.120;17.114;2022-07-29T11:05:04;101801.69;;;32.79;31.31
42511;BME280;28141;51.120;17.114;2022-07-29T11:08:19;101794.96;;;32.80;31.86
42511;BME280;28141;51.120;17.114;2022-07-29T11:11:31;101805.91;;;32.81;31.03
42511;BME280;28141;51.120;17.114;2022-07-29T11:18:02;101797.23;;;32.83;31.78
42511;BME280;28141;51.120;17.114;2022-07-29T11:21:35;101799.80;;;32.89;31.31
42511;BME280;28141;51.120;17.114;2022-07-29T11:24:39;101792.27;;;32.95;31.56
42511;BME280;28141;51.120;17.114;2022-07-29T11:27:44;101797.36;;;32.98;30.74
42511;BME280;28141;51.120;17.114;2022-07-29T11:30:50;101799.32;;;33.03;30.54
42511;BME280;28141;51.120;17.114;2022-07-29T11:33:54;101798.53;;;33.07;31.63
42511;BME280;28141;51.120;17.114;2022-07-29T11:40:40;101805.79;;;33.03;31.28
42511;BME280;28141;51.120;17.114;2022-07-29T11:43:55;101792.61;;;33.04;31.59
42511;BME280;28141;51.120;17.114;2022-07-29T11:47:06;101797.42;;;33.08;31.57
42511;BME280;28141;51.120;17.114;2022-07-29T11:50:14;101793.78;;;33.13;31.55
42511;BME280;28141;51.120;17.114;2022-07-29T11:53:18;101787.37;;;33.17;31.01
42511;BME280;28141;51.120;17.114;2022-07-29T11:56:23;101795.78;;;33.17;31.36
42511;BME280;28141;51.120;17.114;2022-07-29T11:59:55;101791.01;;;33.18;31.15
42511;BME280;28141;51.120;17.114;2022-07-29T12:03:03;101785.09;;;33.14;31.41
42511;BME280;28141;51.120;17.114;2022-07-29T12:06:13;101784.83;;;33.21;30.64
42511;BME280;28141;51.120;17.114;2022-07-29T12:09:18;101787.13;;;33.24;30.71
42511;BME280;28141;51.120;17.114;2022-07-29T12:12:22;101779.55;;;33.24;31.18
42511;BME280;28141;51.120;17.114;2022-07-29T12:15:26;101774.52;;;33.26;31.19
42511;BME280;28141;51.120;17.114;2022-07-29T12:18:29;101782.95;;;33.26;31.47
42511;BME280;28141;51.120;17.114;2022-07-29T12:21:57;101775.09;;;33.28;31.17
42511;BME280;28141;51.120;17.114;2022-07-29T12:25:12;101768.37;;;33.29;30.98
42511;BME280;28141;51.120;17.114;2022-07-29T12:28:21;101772.01;;;33.30;30.87
42511;BME280;28141;51.120;17.114;2022-07-29T12:31:24;101764.44;;;33.30;30.97
42511;BME280;28141;51.120;17.114;2022-07-29T12:34:28;101757.98;;;33.35;31.10
42511;BME280;28141;51.120;17.114;2022-07-29T12:37:36;101764.71;;;33.34;30.87
42511;BME280;28141;51.120;17.114;2022-07-29T12:40:41;101756.29;;;33.34;31.54
42511;BME280;28141;51.120;17.114;2022-07-29T12:44:10;101748.70;;;33.34;31.06
42511;BME280;28141;51.120;17.114;2022-07-29T12:47:15;101744.21;;;33.33;30.96
42511;BME280;28141;51.120;17.114;2022-07-29T12:50:19;101748.44;;;33.36;31.34
42511;BME280;28141;51.120;17.114;2022-07-29T12:53:23;101740.59;;;33.43;31.14
42511;BME280;28141;51.120;17.114;2022-07-29T12:56:27;101740.32;;;33.45;31.05
42511;BME280;28141;51.120;17.114;2022-07-29T12:59:30;101744.58;;;33.52;31.09
42511;BME280;28141;51.120;17.114;2022-07-29T13:02:34;101741.47;;;33.54;31.32
42511;BME280;28141;51.120;17.114;2022-07-29T13:05:43;101735.85;;;33.54;31.01
42511;BME280;28141;51.120;17.114;2022-07-29T13:09:16;101733.89;;;33.49;31.05
42511;BME280;28141;51.120;17.114;2022-07-29T13:12:20;101724.07;;;33.52;31.67
42511;BME280;28141;51.120;17.114;2022-07-29T13:15:23;101722.11;;;33.52;30.56
42511;BME280;28141;51.120;17.114;2022-07-29T13:18:32;101727.42;;;33.54;30.99
42511;BME280;28141;51.120;17.114;2022-07-29T13:21:37;101721.52;;;33.55;31.25
42511;BME280;28141;51.120;17.114;2022-07-29T13:24:51;101720.44;;;33.61;31.06
42511;BME280;28141;51.120;17.114;2022-07-29T13:27:56;101713.37;;;33.54;31.70
42511;BME280;28141;51.120;17.114;2022-07-29T13:31:00;101706.39;;;33.66;30.76
42511;BME280;28141;51.120;17.114;2022-07-29T13:34:03;101708.65;;;33.69;30.96
42511;BME280;28141;51.120;17.114;2022-07-29T13:37:08;101703.63;;;33.77;31.08
42511;BME280;28141;51.120;17.114;2022-07-29T13:40:12;101700.55;;;33.78;30.93
42511;BME280;28141;51.120;17.114;2022-07-29T13:43:45;101701.66;;;33.77;31.03
42511;BME280;28141;51.120;17.114;2022-07-29T13:46:49;101700.55;;;33.78;31.11
42511;BME280;28141;51.120;17.114;2022-07-29T13:49:53;101699.13;;;33.76;31.17
42511;BME280;28141;51.120;17.114;2022-07-29T13:52:57;101693.52;;;33.81;31.19
42511;BME280;28141;51.120;17.114;2022-07-29T13:56:00;101693.52;;;33.81;30.21
42511;BME280;28141;51.120;17.114;2022-07-29T13:59:04;101693.23;;;33.77;30.95
42511;BME280;28141;51.120;17.114;2022-07-29T14:02:07;101699.45;;;33.84;31.13
42511;BME280;28141;51.120;17.114;2022-07-29T14:05:12;101702.26;;;33.84;30.86
42511;BME280;28141;51.120;17.114;2022-07-29T14:08:15;101697.75;;;33.83;31.09
42511;BME280;28141;51.120;17.114;2022-07-29T14:11:18;101691.54;;;33.76;31.12
42511;BME280;28141;51.120;17.114;2022-07-29T14:14:22;101700.27;;;33.75;31.46
42511;BME280;28141;51.120;17.114;2022-07-29T14:17:25;101699.95;;;33.71;31.43
42511;BME280;28141;51.120;17.114;2022-07-29T14:20:29;101692.64;;;33.70;31.00
42511;BME280;28141;51.120;17.114;2022-07-29T14:23:34;101690.91;;;33.64;31.01
42511;BME280;28141;51.120;17.114;2022-07-29T14:26:38;101691.77;;;33.59;32.01
42511;BME280;28141;51.120;17.114;2022-07-29T14:29:41;101687.00;;;33.60;30.88
42511;BME280;28141;51.120;17.114;2022-07-29T14:32:45;101694.02;;;33.57;31.38
42511;BME280;28141;51.120;17.114;2022-07-29T14:35:48;101690.38;;;33.62;31.66
42511;BME280;28141;51.120;17.114;2022-07-29T14:38:52;101678.84;;;33.58;31.52
42511;BME280;28141;51.120;17.114;2022-07-29T14:42:20;101678.81;;;33.53;31.53
42511;BME280;28141;51.120;17.114;2022-07-29T14:45:23;101675.20;;;33.53;31.03
42511;BME280;28141;51.120;17.114;2022-07-29T14:48:27;101675.46;;;33.51;31.53
42511;BME280;28141;51.120;17.114;2022-07-29T14:51:31;101675.73;;;33.55;31.62
42511;BME280;28141;51.120;17.114;2022-07-29T14:54:34;101675.16;;;33.48;31.41
42511;BME280;28141;51.120;17.114;2022-07-29T14:57:38;101681.90;;;33.47;31.60
42511;BME280;28141;51.120;17.114;2022-07-29T15:00:41;101675.70;;;33.45;31.53
42511;BME280;28141;51.120;17.114;2022-07-29T15:03:45;101676.28;;;33.47;31.48
42511;BME280;28141;51.120;17.114;2022-07-29T15:06:48;101665.62;;;33.49;31.84
42511;BME280;28141;51.120;17.114;2022-07-29T15:09:52;101665.62;;;33.49;32.03
42511;BME280;28141;51.120;17.114;2022-07-29T15:12:56;101666.20;;;33.51;31.76
42511;BME280;28141;51.120;17.114;2022-07-29T15:16:00;101663.38;;;33.51;31.88
42511;BME280;28141;51.120;17.114;2022-07-29T15:19:04;101657.74;;;33.46;31.85
42511;BME280;28141;51.120;17.114;2022-07-29T15:22:07;101656.61;;;33.47;31.55
42511;BME280;28141;51.120;17.114;2022-07-29T15:25:11;101658.86;;;33.40;31.85
42511;BME280;28141;51.120;17.114;2022-07-29T15:28:14;101662.23;;;33.42;32.19
42511;BME280;28141;51.120;17.114;2022-07-29T15:31:43;101659.67;;;33.35;32.03
42511;BME280;28141;51.120;17.114;2022-07-29T15:34:46;101662.77;;;33.33;32.29
42511;BME280;28141;51.120;17.114;2022-07-29T15:37:50;101651.25;;;33.35;32.11
42511;BME280;28141;51.120;17.114;2022-07-29T15:40:53;101645.66;;;33.40;31.98
42511;BME280;28141;51.120;17.114;2022-07-29T15:43:57;101649.84;;;33.43;31.68
42511;BME280;28141;51.120;17.114;2022-07-29T15:47:00;101642.02;;;33.50;32.12
42511;BME280;28141;51.120;17.114;2022-07-29T15:50:10;101638.65;;;33.48;31.85
42511;BME280;28141;51.120;17.114;2022-07-29T15:53:18;101637.80;;;33.47;31.88
42511;BME280;28141;51.120;17.114;2022-07-29T15:56:46;101651.58;;;33.49;31.95
42511;BME280;28141;51.120;17.114;2022-07-29T15:59:49;101643.71;;;33.51;32.05
42511;BME280;28141;51.120;17.114;2022-07-29T16:02:54;101636.95;;;33.47;31.55
42511;BME280;28141;51.120;17.114;2022-07-29T16:05:57;101637.80;;;33.47;31.97
42511;BME280;28141;51.120;17.114;2022-07-29T16:09:00;101633.02;;;33.48;32.12
42511;BME280;28141;51.120;17.114;2022-07-29T16:12:05;101632.19;;;33.47;31.83
42511;BME280;28141;51.120;17.114;2022-07-29T16:15:09;101642.58;;;33.47;31.64
42511;BME280;28141;51.120;17.114;2022-07-29T16:18:13;101629.09;;;33.54;32.33
42511;BME280;28141;51.120;17.114;2022-07-29T16:21:16;101633.34;;;33.61;31.94
42511;BME280;28141;51.120;17.114;2022-07-29T16:24:45;101622.36;;;33.65;31.83
42511;BME280;28141;51.120;17.114;2022-07-29T16:27:48;101631.93;;;33.69;31.76
42511;BME280;28141;51.120;17.114;2022-07-29T16:30:52;101635.31;;;33.71;31.96
42511;BME280;28141;51.120;17.114;2022-07-29T16:33:55;101625.78;;;33.77;31.47
42511;BME280;28141;51.120;17.114;2022-07-29T16:36:59;101630.30;;;33.83;31.17
42511;BME280;28141;51.120;17.114;2022-07-29T16:40:04;101627.21;;;33.85;31.43
42511;BME280;28141;51.120;17.114;2022-07-29T16:43:08;101619.91;;;33.84;31.74
42511;BME280;28141;51.120;17.114;2022-07-29T16:46:12;101620.17;;;33.82;31.49
42511;BME280;28141;51.120;17.114;2022-07-29T16:49:16;101622.71;;;33.84;32.01